Time;durP1;ratioP1;P1;durP2;ratioP2;P2;SDS_P1;SDS_P2;PMS_P1;PMS_P2;Temp;Humidity;BMP_temperature;BMP_pressure;BME280_temperature;BME280_humidity;BME280_pressure;Samples;Min_cycle;Max_cycle;Signal;HPM_P1;HPM_P2
2023/06/02 00:01:17;;;;;;;;;;;;;;;21.28;50.45;99212.00;4482698;32;34183;-81
2023/06/02 00:03:47;;;;;;;;;;;;;;;21.22;50.42;99214.19;4477430;32;33879;-78
2023/06/02 00:06:15;;;;;;;;;;;;;;;21.34;50.30;99217.84;4477364;32;33603;-81
2023/06/02 00:08:45;;;;;;;;;;;;;;;21.26;50.49;99210.41;4477078;32;33809;-78
2023/06/02 00:11:14;;;;;;;;;;;;;;;21.25;50.69;99214.84;4482583;32;33788;-79
2023/06/02 00:13:43;;;;;;;;;;;;;;;21.30;50.67;99212.75;4477480;32;34174;-79
2023/06/02 00:16:15;;;;;;;;;;;;;;;21.35;50.76;99208.97;4476923;32;33923;-80
2023/06/02 00:18:44;;;;;;;;;;;;;;;21.30;50.78;99199.56;4477130;32;33066;-78
2023/06/02 00:21:14;;;;;;;;;;;;;;;21.35;50.69;99206.31;4476850;32;34195;-79
2023/06/02 00:23:42;;;;;;;;;;;;;;;21.38;50.63;99206.97;4482447;32;35094;-78
2023/06/02 00:26:12;;;;;;;;;;;;;;;21.30;50.63;99207.47;4477087;32;33829;-78
2023/06/02 00:28:42;;;;;;;;;;;;;;;21.35;50.44;99209.81;4477019;32;35177;-79
2023/06/02 00:31:11;;;;;;;;;;;;;;;21.35;50.26;99212.44;4476928;32;34343;-79
2023/06/02 00:33:41;;;;;;;;;;;;;;;21.13;51.05;99209.53;4482195;32;35817;-80
2023/06/02 00:36:10;;;;;;;;;;;;;;;21.08;51.40;99212.44;4476618;32;33415;-81
2023/06/02 00:38:39;;;;;;;;;;;;;;;21.21;51.13;99208.06;4477102;32;33879;-78
2023/06/02 00:41:08;;;;;;;;;;;;;;;21.25;51.26;99209.56;4462527;32;33318;-79
2023/06/02 00:43:39;;;;;;;;;;;;;;;21.18;51.42;99204.78;4480727;31;35060;-81
2023/06/02 00:46:07;;;;;;;;;;;;;;;21.27;50.80;99207.69;4480859;32;34844;-81
2023/06/02 00:48:41;;;;;;;;;;;;;;;21.03;51.88;99207.47;4476722;32;32562;-81
2023/06/02 00:51:09;;;;;;;;;;;;;;;20.92;52.15;99202.03;4477002;32;34916;-81
2023/06/02 00:53:38;;;;;;;;;;;;;;;20.93;52.06;99206.38;4476788;32;33884;-80
2023/06/02 00:56:07;;;;;;;;;;;;;;;20.81;52.41;99207.16;4482315;32;33838;-79
2023/06/02 00:58:37;;;;;;;;;;;;;;;20.82;52.21;99207.03;4476674;32;32822;-79
2023/06/02 01:01:10;;;;;;;;;;;;;;;20.99;52.00;99200.69;4476949;32;34765;-79
2023/06/02 01:03:39;;;;;;;;;;;;;;;20.87;52.18;99202.31;4476579;32;34161;-80
2023/06/02 01:06:08;;;;;;;;;;;;;;;20.93;52.22;99195.81;4482103;32;33393;-81
2023/06/02 01:08:37;;;;;;;;;;;;;;;20.93;52.27;99205.53;4480791;32;33116;-79
2023/06/02 01:11:06;;;;;;;;;;;;;;;20.86;52.35;99198.00;4476629;32;33717;-79
2023/06/02 01:13:35;;;;;;;;;;;;;;;20.74;52.70;99206.69;4476582;32;33888;-80
2023/06/02 01:16:04;;;;;;;;;;;;;;;20.70;52.46;99199.91;4476343;32;33845;-81
2023/06/02 01:18:35;;;;;;;;;;;;;;;20.57;52.95;99199.81;4481676;32;33249;-81
2023/06/02 01:21:05;;;;;;;;;;;;;;;20.58;52.72;99201.50;4476632;32;34648;-78
2023/06/02 01:23:36;;;;;;;;;;;;;;;20.40;53.30;99205.25;4475541;32;33628;-81
2023/06/02 01:26:08;;;;;;;;;;;;;;;20.53;52.74;99195.66;4475457;32;33177;-79
2023/06/02 01:28:40;;;;;;;;;;;;;;;20.36;53.07;99204.59;4481394;32;33100;-81
2023/06/02 01:31:11;;;;;;;;;;;;;;;20.13;53.73;99199.91;4481235;32;33891;-79
2023/06/02 01:33:43;;;;;;;;;;;;;;;20.14;53.60;99197.16;4476967;32;35085;-80
2023/06/02 01:36:14;;;;;;;;;;;;;;;20.00;54.11;99195.34;4475861;32;34713;-80
2023/06/02 01:38:43;;;;;;;;;;;;;;;20.15;53.68;99201.50;4481674;31;34352;-78
2023/06/02 01:41:13;;;;;;;;;;;;;;;20.27;53.22;99201.66;4486460;31;34296;-80
2023/06/02 01:43:42;;;;;;;;;;;;;;;20.13;53.75;99203.38;4479083;32;33898;-79
2023/06/02 01:46:11;;;;;;;;;;;;;;;20.08;53.71;99207.19;4478318;32;33852;-82
2023/06/02 01:48:40;;;;;;;;;;;;;;;19.94;54.36;99200.16;4478327;32;33133;-81
2023/06/02 01:51:09;;;;;;;;;;;;;;;19.87;54.63;99202.28;4480984;32;34593;-80
2023/06/02 01:53:38;;;;;;;;;;;;;;;19.83;55.03;99200.78;4483503;32;34266;-80
2023/06/02 01:56:07;;;;;;;;;;;;;;;19.87;54.85;99204.91;4478608;32;33799;-80
2023/06/02 01:58:37;;;;;;;;;;;;;;;19.91;54.69;99206.44;4478217;32;33213;-79
2023/06/02 02:01:06;;;;;;;;;;;;;;;19.91;54.74;99205.56;4478441;32;33878;-80
2023/06/02 02:03:37;;;;;;;;;;;;;;;19.93;54.63;99201.91;4483759;32;35054;-80
2023/06/02 02:06:05;;;;;;;;;;;;;;;19.98;54.47;99197.25;4478251;32;33486;-80
2023/06/02 02:08:33;;;;;;;;;;;;;;;20.01;54.52;99198.84;4478409;32;34209;-80
2023/06/02 02:11:02;;;;;;;;;;;;;;;19.82;54.87;99191.19;4479432;32;34824;-79
2023/06/02 02:13:31;;;;;;;;;;;;;;;19.95;54.55;99197.41;4483653;32;34878;-80
2023/06/02 02:16:01;;;;;;;;;;;;;;;19.79;55.04;99200.13;4477353;31;33759;-81
2023/06/02 02:18:30;;;;;;;;;;;;;;;19.82;55.02;99194.66;4478050;31;32370;-80
2023/06/02 02:20:58;;;;;;;;;;;;;;;19.99;54.55;99188.41;4478172;32;34216;-79
2023/06/02 02:23:30;;;;;;;;;;;;;;;19.82;55.15;99191.19;4477819;32;34796;-80
2023/06/02 02:25:58;;;;;;;;;;;;;;;19.85;54.99;99188.38;4483713;32;33898;-79
2023/06/02 02:28:27;;;;;;;;;;;;;;;19.76;55.09;99184.47;4463099;32;32657;-81
2023/06/02 02:30:56;;;;;;;;;;;;;;;19.80;55.18;99188.62;4478425;32;34180;-79
2023/06/02 02:33:26;;;;;;;;;;;;;;;19.76;55.22;99187.13;4477731;32;34323;-78
2023/06/02 02:35:55;;;;;;;;;;;;;;;19.74;55.34;99190.78;4483244;32;34121;-80
2023/06/02 02:38:24;;;;;;;;;;;;;;;19.73;55.39;99197.00;4478018;32;31970;-78
2023/06/02 02:40:53;;;;;;;;;;;;;;;19.81;55.26;99195.63;4477888;32;33704;-80
2023/06/02 02:43:22;;;;;;;;;;;;;;;19.71;55.60;99193.59;4477934;32;34066;-81
2023/06/02 02:45:51;;;;;;;;;;;;;;;19.67;55.78;99186.78;4479755;32;33740;-82
2023/06/02 02:48:19;;;;;;;;;;;;;;;19.64;55.86;99186.97;4483448;32;33348;-79
2023/06/02 02:50:51;;;;;;;;;;;;;;;19.75;55.50;99189.84;4478050;32;33950;-81
2023/06/02 02:53:20;;;;;;;;;;;;;;;19.64;55.92;99193.06;4477750;32;33261;-79
2023/06/02 02:55:50;;;;;;;;;;;;;;;19.50;56.27;99188.62;4477924;32;33981;-79
2023/06/02 02:58:19;;;;;;;;;;;;;;;19.50;56.17;99180.75;4468802;32;31560;-80
2023/06/02 03:00:48;;;;;;;;;;;;;;;19.49;56.16;99186.06;4477888;32;33924;-79
2023/06/02 03:03:18;;;;;;;;;;;;;;;19.46;56.22;99189.72;4477957;32;34773;-78
2023/06/02 03:05:54;;;;;;;;;;;;;;;19.56;56.06;99184.78;4477493;32;34286;-80
2023/06/02 03:08:27;;;;;;;;;;;;;;;19.35;56.74;99182.47;4478675;32;33730;-80
2023/06/02 03:10:56;;;;;;;;;;;;;;;19.36;56.68;99186.78;4483007;32;34136;-78
2023/06/02 03:13:25;;;;;;;;;;;;;;;19.30;56.75;99187.13;4477664;32;34917;-79
2023/06/02 03:15:54;;;;;;;;;;;;;;;19.24;56.88;99184.03;4477949;32;33650;-80
2023/06/02 03:18:23;;;;;;;;;;;;;;;19.34;56.81;99179.91;4477528;32;33389;-79
2023/06/02 03:20:54;;;;;;;;;;;;;;;19.48;56.36;99174.72;4483373;32;34515;-79
2023/06/02 03:23:22;;;;;;;;;;;;;;;19.44;56.45;99181.09;4477678;32;33469;-80
2023/06/02 03:25:53;;;;;;;;;;;;;;;19.54;56.22;99186.66;4478392;32;34421;-79
2023/06/02 03:28:22;;;;;;;;;;;;;;;19.40;56.78;99179.56;4477490;32;33518;-80
2023/06/02 03:30:50;;;;;;;;;;;;;;;19.66;56.03;99172.78;4480296;32;33121;-81
2023/06/02 03:33:21;;;;;;;;;;;;;;;19.70;55.93;99181.38;4483001;32;33340;-78
2023/06/02 03:35:50;;;;;;;;;;;;;;;19.57;56.43;99182.06;4477404;32;34137;-80
2023/06/02 03:38:20;;;;;;;;;;;;;;;19.64;56.35;99182.53;4477720;32;33208;-79
2023/06/02 03:40:48;;;;;;;;;;;;;;;19.69;56.10;99184.94;4477916;32;34253;-78
2023/06/02 03:43:18;;;;;;;;;;;;;;;19.70;55.94;99184.84;4483109;32;33774;-78
2023/06/02 03:45:48;;;;;;;;;;;;;;;19.67;56.00;99192.03;4476087;31;34117;-79
2023/06/02 03:48:16;;;;;;;;;;;;;;;19.86;55.51;99192.72;4477073;31;33138;-80
2023/06/02 03:51:04;;;;;;;;;;;;;;;19.86;55.31;99187.44;4477383;32;33799;-80
2023/06/02 03:53:34;;;;;;;;;;;;;;;19.93;55.49;99186.13;4477341;32;33668;-80
2023/06/02 03:56:03;;;;;;;;;;;;;;;20.16;54.93;99187.38;4482853;32;34191;-81
2023/06/02 03:58:35;;;;;;;;;;;;;;;20.23;54.83;99186.06;4477883;32;34306;-78
2023/06/02 04:01:05;;;;;;;;;;;;;;;20.31;54.57;99190.84;4477895;32;33393;-81
2023/06/02 04:03:36;;;;;;;;;;;;;;;20.41;54.53;99183.22;4477259;32;34687;-82
2023/06/02 04:06:06;;;;;;;;;;;;;;;20.50;54.11;99181.81;4482127;32;34059;-82
2023/06/02 04:08:36;;;;;;;;;;;;;;;20.75;53.72;99184.63;4477438;32;32347;-79
2023/06/02 04:11:04;;;;;;;;;;;;;;;20.93;53.67;99192.34;4477298;32;33826;-80
2023/06/02 04:13:33;;;;;;;;;;;;;;;21.02;53.74;99195.25;4477276;32;33450;-81
2023/06/02 04:16:05;;;;;;;;;;;;;;;21.26;53.43;99186.66;4477528;32;33666;-82
2023/06/02 04:18:37;;;;;;;;;;;;;;;21.40;52.49;99188.44;4482770;32;33220;-81
2023/06/02 04:21:06;;;;;;;;;;;;;;;21.81;51.77;99192.75;4477313;32;33952;-79
2023/06/02 04:23:35;;;;;;;;;;;;;;;22.69;49.70;99190.19;4477168;32;33967;-80
2023/06/02 04:26:03;;;;;;;;;;;;;;;23.57;47.28;99189.97;4477020;32;33645;-79
2023/06/02 04:28:35;;;;;;;;;;;;;;;24.28;46.09;99185.44;4482478;32;33948;-82
2023/06/02 04:31:05;;;;;;;;;;;;;;;25.00;43.99;99187.72;4476872;32;33631;-82
2023/06/02 04:33:35;;;;;;;;;;;;;;;25.67;42.31;99191.13;4477265;32;35024;-80
2023/06/02 04:36:07;;;;;;;;;;;;;;;26.31;41.04;99187.47;4477149;32;33088;-82
2023/06/02 04:38:36;;;;;;;;;;;;;;;26.52;40.11;99187.44;4477427;32;33157;-81
2023/06/02 04:41:06;;;;;;;;;;;;;;;26.88;39.88;99185.19;4482287;32;34878;-81
2023/06/02 04:43:35;;;;;;;;;;;;;;;27.44;37.69;99189.91;4476727;32;34030;-82
2023/06/02 04:46:06;;;;;;;;;;;;;;;27.63;37.45;99184.56;4476676;32;34000;-81
2023/06/02 04:48:38;;;;;;;;;;;;;;;27.97;37.28;99189.44;4476756;32;33306;-80
2023/06/02 04:51:08;;;;;;;;;;;;;;;28.03;37.08;99188.06;4482082;32;34508;-80
2023/06/02 04:53:36;;;;;;;;;;;;;;;28.50;36.11;99183.56;4478058;32;34132;-80
2023/06/02 04:56:05;;;;;;;;;;;;;;;28.61;36.33;99189.69;4476398;32;34516;-82
2023/06/02 04:58:34;;;;;;;;;;;;;;;28.97;35.36;99184.41;4476783;32;33886;-81
2023/06/02 05:01:03;;;;;;;;;;;;;;;28.92;35.35;99183.06;4476538;32;33725;-80
2023/06/02 05:03:33;;;;;;;;;;;;;;;29.13;35.11;99182.78;4481944;32;34140;-81
2023/06/02 05:06:02;;;;;;;;;;;;;;;29.20;34.90;99190.22;4476885;32;33708;-80
2023/06/02 05:08:32;;;;;;;;;;;;;;;29.14;35.11;99183.66;4476524;32;34117;-80
2023/06/02 05:11:01;;;;;;;;;;;;;;;29.42;34.82;99192.44;4476450;32;33989;-83
2023/06/02 05:13:30;;;;;;;;;;;;;;;29.33;34.24;99190.66;4481997;32;33675;-81
2023/06/02 05:16:00;;;;;;;;;;;;;;;29.06;34.33;99186.19;4475237;31;34126;-82
2023/06/02 05:18:29;;;;;;;;;;;;;;;28.62;35.56;99189.53;4476086;31;33573;-81
2023/06/02 05:21:00;;;;;;;;;;;;;;;28.49;36.27;99181.88;4479638;32;33604;-81
2023/06/02 05:23:29;;;;;;;;;;;;;;;28.50;36.39;99186.22;4479017;32;34345;-81
2023/06/02 05:25:58;;;;;;;;;;;;;;;28.39;37.05;99190.88;4484188;32;33834;-81
2023/06/02 05:28:27;;;;;;;;;;;;;;;28.23;37.60;99194.16;4478774;32;33291;-81
2023/06/02 05:30:56;;;;;;;;;;;;;;;27.95;37.94;99190.59;4478764;32;33806;-81
2023/06/02 05:33:25;;;;;;;;;;;;;;;27.43;39.57;99190.91;4478928;32;35027;-81
2023/06/02 05:35:54;;;;;;;;;;;;;;;27.66;40.01;99199.44;4494386;31;34028;-79
2023/06/02 05:38:25;;;;;;;;;;;;;;;27.83;38.73;99193.41;4491107;31;32542;-80
2023/06/02 05:40:55;;;;;;;;;;;;;;;27.74;39.70;99193.37;4493478;31;34902;-79
2023/06/02 05:43:23;;;;;;;;;;;;;;;27.94;39.52;99189.75;4494258;31;35098;-79
2023/06/02 05:45:52;;;;;;;;;;;;;;;28.15;39.38;99197.56;4499003;31;34147;-78
2023/06/02 05:48:23;;;;;;;;;;;;;;;28.46;38.72;99186.66;4498236;31;33911;-80
2023/06/02 05:50:53;;;;;;;;;;;;;;;28.73;37.95;99188.53;4493759;31;34859;-79
2023/06/02 05:53:22;;;;;;;;;;;;;;;28.92;36.85;99185.72;4494514;31;33963;-80
2023/06/02 05:55:53;;;;;;;;;;;;;;;28.83;36.55;99188.47;4493451;31;32580;-80
2023/06/02 05:58:22;;;;;;;;;;;;;;;28.66;37.30;99187.44;4492898;31;32386;-79
2023/06/02 06:00:51;;;;;;;;;;;;;;;28.36;37.08;99185.84;4479339;31;34176;-81
2023/06/02 06:03:21;;;;;;;;;;;;;;;28.21;36.68;99185.47;4493806;31;35050;-80
2023/06/02 06:05:50;;;;;;;;;;;;;;;27.82;38.35;99185.53;4493629;31;34611;-81
2023/06/02 06:08:18;;;;;;;;;;;;;;;27.67;37.61;99187.81;4492339;31;32311;-79
2023/06/02 06:10:48;;;;;;;;;;;;;;;27.60;38.92;99189.34;4489368;31;34977;-79
2023/06/02 06:13:18;;;;;;;;;;;;;;;27.30;38.66;99190.31;4491057;31;33913;-81
2023/06/02 06:15:48;;;;;;;;;;;;;;;27.10;39.71;99189.44;4477761;32;33914;-78
2023/06/02 06:18:19;;;;;;;;;;;;;;;27.43;40.12;99189.06;4477925;32;33791;-80
2023/06/02 06:20:49;;;;;;;;;;;;;;;27.12;39.47;99190.12;4484527;31;33669;-79
2023/06/02 06:23:18;;;;;;;;;;;;;;;27.37;40.09;99192.28;4490913;31;34956;-79
2023/06/02 06:25:47;;;;;;;;;;;;;;;26.91;40.57;99191.06;4482749;31;34327;-80
2023/06/02 06:28:17;;;;;;;;;;;;;;;27.27;40.52;99196.75;4478175;32;33252;-81
2023/06/02 06:30:46;;;;;;;;;;;;;;;27.20;40.17;99196.47;4482908;32;34687;-79
2023/06/02 06:33:14;;;;;;;;;;;;;;;27.31;39.79;99203.50;4478270;31;33781;-80
2023/06/02 06:35:44;;;;;;;;;;;;;;;26.89;41.12;99197.50;4492474;31;33855;-79
2023/06/02 06:38:13;;;;;;;;;;;;;;;27.13;41.10;99200.63;4492687;31;33338;-79
2023/06/02 06:40:44;;;;;;;;;;;;;;;26.99;40.73;99204.56;4492789;31;34185;-80
2023/06/02 06:43:16;;;;;;;;;;;;;;;26.92;40.98;99203.41;4498480;31;33929;-80
2023/06/02 06:45:53;;;;;;;;;;;;;;;27.19;41.25;99208.13;4493458;31;33783;-81
2023/06/02 06:48:22;;;;;;;;;;;;;;;27.30;41.20;99207.13;4479743;31;33155;-81
2023/06/02 06:50:51;;;;;;;;;;;;;;;27.30;40.58;99216.94;4489934;31;34215;-79
2023/06/02 06:53:20;;;;;;;;;;;;;;;26.91;41.32;99200.87;4499088;31;34892;-79
2023/06/02 06:55:51;;;;;;;;;;;;;;;26.93;39.19;99213.06;4497579;31;34051;-79
2023/06/02 06:58:20;;;;;;;;;;;;;;;26.77;39.98;99210.94;4493475;31;32873;-81
2023/06/02 07:00:49;;;;;;;;;;;;;;;27.05;39.36;99210.31;4493254;31;33716;-80
2023/06/02 07:03:19;;;;;;;;;;;;;;;26.96;40.36;99215.44;4488094;31;33937;-79
2023/06/02 07:05:48;;;;;;;;;;;;;;;26.98;40.28;99210.00;4498288;31;34063;-78
2023/06/02 07:08:17;;;;;;;;;;;;;;;27.23;39.93;99221.97;4491514;31;32851;-79
2023/06/02 07:10:46;;;;;;;;;;;;;;;27.07;40.69;99214.50;4492315;31;33565;-80
2023/06/02 07:13:14;;;;;;;;;;;;;;;27.25;39.99;99212.03;4492979;31;34544;-80
2023/06/02 07:15:44;;;;;;;;;;;;;;;27.35;38.23;99206.72;4498264;31;34030;-79
2023/06/02 07:18:13;;;;;;;;;;;;;;;27.54;39.65;99212.03;4493379;31;33846;-79
2023/06/02 07:20:43;;;;;;;;;;;;;;;27.74;39.35;99201.37;4493220;31;34101;-79
2023/06/02 07:23:12;;;;;;;;;;;;;;;27.83;38.42;99208.56;4493284;31;34095;-78
2023/06/02 07:25:40;;;;;;;;;;;;;;;27.79;38.91;99212.47;4493310;31;34091;-79
2023/06/02 07:28:09;;;;;;;;;;;;;;;27.82;38.21;99204.19;4498435;31;32974;-79
2023/06/02 07:30:38;;;;;;;;;;;;;;;27.83;38.32;99213.88;4479337;31;33837;-79
2023/06/02 07:33:06;;;;;;;;;;;;;;;27.51;37.85;99212.34;4476944;32;34723;-78
2023/06/02 07:35:35;;;;;;;;;;;;;;;27.59;37.82;99212.50;4477475;32;34672;-79
2023/06/02 07:38:05;;;;;;;;;;;;;;;27.43;39.07;99207.72;4482923;31;33777;-79
2023/06/02 07:40:33;;;;;;;;;;;;;;;27.51;38.75;99209.66;4478236;31;33795;-79
2023/06/02 07:43:02;;;;;;;;;;;;;;;27.51;38.72;99209.66;4487467;31;35155;-81
2023/06/02 07:45:31;;;;;;;;;;;;;;;27.75;36.91;99205.75;4479874;31;34675;-78
2023/06/02 07:47:59;;;;;;;;;;;;;;;27.59;38.93;99206.31;4493562;31;33757;-79
2023/06/02 07:50:28;;;;;;;;;;;;;;;27.43;38.24;99202.38;4478894;31;33843;-80
2023/06/02 07:52:57;;;;;;;;;;;;;;;27.57;36.98;99203.78;4480149;31;34019;-81
2023/06/02 07:55:27;;;;;;;;;;;;;;;27.41;36.29;99208.84;4479012;31;33478;-80
2023/06/02 07:57:56;;;;;;;;;;;;;;;27.47;36.69;99210.09;4477774;31;33440;-80
2023/06/02 08:00:26;;;;;;;;;;;;;;;27.81;36.56;99210.50;4492571;31;33814;-79
2023/06/02 08:02:58;;;;;;;;;;;;;;;28.01;36.96;99216.69;4486508;31;33944;-81
2023/06/02 08:05:27;;;;;;;;;;;;;;;27.85;37.46;99209.25;4481889;31;34727;-78
2023/06/02 08:07:55;;;;;;;;;;;;;;;27.48;37.42;99203.78;4485437;31;33762;-81
2023/06/02 08:10:24;;;;;;;;;;;;;;;27.65;38.47;99208.41;4489946;31;34295;-79
2023/06/02 08:12:54;;;;;;;;;;;;;;;27.96;37.00;99201.13;4489134;31;34369;-81
2023/06/02 08:15:23;;;;;;;;;;;;;;;28.05;36.71;99204.72;4490981;31;33172;-81
2023/06/02 08:17:52;;;;;;;;;;;;;;;27.17;38.20;99199.38;4486256;31;34872;-82
2023/06/02 08:20:21;;;;;;;;;;;;;;;27.64;37.42;99202.25;4487978;31;33879;-79
2023/06/02 08:22:50;;;;;;;;;;;;;;;27.62;38.02;99200.72;4497611;31;34549;-81
2023/06/02 08:25:19;;;;;;;;;;;;;;;27.86;38.82;99208.28;4485539;31;33770;-81
2023/06/02 08:27:47;;;;;;;;;;;;;;;27.92;36.99;99205.03;4489473;31;33250;-80
2023/06/02 08:30:21;;;;;;;;;;;;;;;27.96;37.43;99208.28;4488719;31;34616;-79
2023/06/02 08:32:50;;;;;;;;;;;;;;;28.16;36.93;99203.72;4480608;31;33771;-81
2023/06/02 08:35:18;;;;;;;;;;;;;;;27.89;37.66;99199.16;4478213;31;33917;-81
2023/06/02 08:37:47;;;;;;;;;;;;;;;27.99;35.93;99202.66;4482136;31;33822;-79
2023/06/02 08:40:24;;;;;;;;;;;;;;;27.89;37.07;99205.34;4483438;31;34051;-79
2023/06/02 08:42:59;;;;;;;;;;;;;;;27.77;38.16;99198.44;4479932;31;34160;-79
2023/06/02 08:45:29;;;;;;;;;;;;;;;28.12;37.56;99211.16;4486174;31;33461;-79
2023/06/02 08:47:58;;;;;;;;;;;;;;;27.70;36.66;99202.66;4484436;31;33813;-79
2023/06/02 08:50:28;;;;;;;;;;;;;;;28.07;36.45;99200.09;4475346;32;33590;-78
2023/06/02 08:52:58;;;;;;;;;;;;;;;28.17;37.02;99205.41;4478600;31;33387;-80
2023/06/02 08:55:27;;;;;;;;;;;;;;;28.11;36.50;99193.50;4483346;32;33984;-80
2023/06/02 08:57:57;;;;;;;;;;;;;;;28.16;36.45;99190.41;4481819;31;33761;-79
2023/06/02 09:00:27;;;;;;;;;;;;;;;28.46;37.58;99190.19;4491297;31;33944;-80
2023/06/02 09:02:59;;;;;;;;;;;;;;;28.75;34.14;99189.19;4491572;31;34076;-79
2023/06/02 09:05:28;;;;;;;;;;;;;;;28.58;34.47;99173.97;4478038;31;33906;-80
2023/06/02 09:08:06;;;;;;;;;;;;;;;28.59;34.28;99171.16;4485682;31;34191;-80
2023/06/02 09:10:39;;;;;;;;;;;;;;;28.57;34.85;99170.47;4478669;31;34614;-79
2023/06/02 09:13:09;;;;;;;;;;;;;;;28.79;35.49;99174.56;4478677;31;34849;-80
2023/06/02 09:15:53;;;;;;;;;;;;;;;28.80;34.32;99165.56;4484351;31;34072;-79
2023/06/02 09:18:24;;;;;;;;;;;;;;;28.77;34.68;99160.50;4481423;31;32839;-80
2023/06/02 09:20:53;;;;;;;;;;;;;;;28.88;33.42;99162.97;4485140;31;33849;-79
2023/06/02 09:23:21;;;;;;;;;;;;;;;29.03;32.92;99165.97;4477735;32;34332;-80
2023/06/02 09:25:52;;;;;;;;;;;;;;;29.07;33.06;99156.72;4477608;32;33627;-79
2023/06/02 09:28:20;;;;;;;;;;;;;;;29.04;32.79;99158.78;4477498;32;33056;-81
2023/06/02 09:30:49;;;;;;;;;;;;;;;29.44;33.37;99154.87;4483233;32;34326;-77
2023/06/02 09:33:17;;;;;;;;;;;;;;;29.46;32.70;99155.56;4482895;31;35080;-78
2023/06/02 09:35:48;;;;;;;;;;;;;;;29.40;31.47;99150.81;4482355;31;34383;-79
2023/06/02 09:38:20;;;;;;;;;;;;;;;29.47;31.06;99158.06;4483534;31;33872;-81
2023/06/02 09:40:51;;;;;;;;;;;;;;;29.39;32.47;99154.50;4482248;31;33110;-78
2023/06/02 09:43:28;;;;;;;;;;;;;;;29.67;32.63;99141.88;4485599;31;33350;-80
2023/06/02 09:46:00;;;;;;;;;;;;;;;29.45;33.25;99137.81;4478207;31;34469;-80
2023/06/02 09:48:30;;;;;;;;;;;;;;;29.57;33.73;99141.94;4469784;31;31366;-79
2023/06/02 09:51:02;;;;;;;;;;;;;;;30.02;33.26;99140.94;4480447;31;32869;-81
2023/06/02 09:53:31;;;;;;;;;;;;;;;30.38;33.03;99132.78;4490703;31;33130;-80
2023/06/02 09:55:59;;;;;;;;;;;;;;;30.69;31.56;99132.25;4496791;31;34383;-79
2023/06/02 09:58:28;;;;;;;;;;;;;;;30.87;31.31;99134.81;4486300;31;33353;-80
2023/06/02 10:00:59;;;;;;;;;;;;;;;30.90;31.43;99145.19;4492293;31;33720;-81
2023/06/02 10:03:29;;;;;;;;;;;;;;;30.99;30.30;99154.94;4489935;31;34371;-79
2023/06/02 10:05:59;;;;;;;;;;;;;;;29.81;31.32;99161.84;4492018;31;34036;-81
2023/06/02 10:08:31;;;;;;;;;;;;;;;28.77;33.29;99152.50;4476024;31;30870;-81
2023/06/02 10:11:02;;;;;;;;;;;;;;;29.00;33.85;99160.09;4487734;31;34246;-80
2023/06/02 10:13:38;;;;;;;;;;;;;;;28.54;34.97;99154.75;4480195;31;34601;-81
2023/06/02 10:16:09;;;;;;;;;;;;;;;28.36;36.17;99149.31;4484607;31;34764;-81
2023/06/02 10:18:48;;;;;;;;;;;;;;;28.09;36.37;99147.47;4495273;31;32345;-82
2023/06/02 10:21:20;;;;;;;;;;;;;;;28.25;35.29;99161.03;4483180;31;34739;-79
2023/06/02 10:23:53;;;;;;;;;;;;;;;27.99;36.08;99168.81;4483220;31;35078;-82
2023/06/02 10:26:26;;;;;;;;;;;;;;;27.45;39.68;99172.97;4492776;31;33700;-76
2023/06/02 10:28:57;;;;;;;;;;;;;;;26.61;44.98;99186.66;4493706;31;33098;-76
2023/06/02 10:31:29;;;;;;;;;;;;;;;25.33;49.98;99180.66;4498825;31;34280;-76
2023/06/02 10:33:59;;;;;;;;;;;;;;;25.40;49.34;99168.56;4491976;31;33915;-76
2023/06/02 10:36:28;;;;;;;;;;;;;;;24.92;50.89;99160.97;4490911;31;34352;-77
2023/06/02 10:38:59;;;;;;;;;;;;;;;24.95;50.58;99155.41;4486584;31;33089;-78
2023/06/02 10:41:51;;;;;;;;;;;;;;;24.58;53.56;99150.41;4488194;31;34225;-78
2023/06/02 10:44:23;;;;;;;;;;;;;;;24.34;55.84;99149.69;4490326;31;34261;-79
2023/06/02 10:47:11;;;;;;;;;;;;;;;24.88;58.76;99146.25;4486369;31;33380;-78
2023/06/02 10:49:53;;;;;;;;;;;;;;;25.17;56.63;99135.94;4485827;31;33249;-78
2023/06/02 10:52:22;;;;;;;;;;;;;;;25.74;52.64;99137.34;4487101;31;33912;-78
2023/06/02 10:55:06;;;;;;;;;;;;;;;26.38;50.75;99146.06;4487195;31;34997;-78
2023/06/02 10:57:51;;;;;;;;;;;;;;;26.73;48.64;99148.31;4485857;31;34255;-80
2023/06/02 11:00:39;;;;;;;;;;;;;;;27.10;47.19;99147.66;4488922;31;32940;-81
2023/06/02 11:03:25;;;;;;;;;;;;;;;27.42;47.14;99146.56;4484976;31;35326;-78
2023/06/02 11:06:10;;;;;;;;;;;;;;;27.99;41.14;99134.16;4485605;31;34284;-79
2023/06/02 11:08:40;;;;;;;;;;;;;;;28.06;42.58;99137.09;4488320;31;34480;-78
2023/06/02 11:11:09;;;;;;;;;;;;;;;28.23;41.18;99144.31;4489561;31;33384;-79
2023/06/02 11:13:53;;;;;;;;;;;;;;;27.82;41.32;99162.41;4495337;31;34934;-78
2023/06/02 11:16:23;;;;;;;;;;;;;;;27.51;46.90;99172.38;4469561;31;32720;-77
2023/06/02 11:18:51;;;;;;;;;;;;;;;27.07;53.32;99203.88;4488762;31;34127;-79
2023/06/02 11:21:20;;;;;;;;;;;;;;;25.58;55.79;99219.28;4482235;31;32990;-77
2023/06/02 11:23:54;;;;;;;;;;;;;;;24.06;55.99;99194.22;4488581;31;33764;-78
2023/06/02 11:26:23;;;;;;;;;;;;;;;23.18;58.58;99195.47;4487287;31;34269;-78
2023/06/02 11:28:52;;;;;;;;;;;;;;;22.44;62.37;99177.87;4484170;31;34681;-76
2023/06/02 11:31:22;;;;;;;;;;;;;;;22.29;64.64;99171.88;4484892;31;33127;-75
2023/06/02 11:33:52;;;;;;;;;;;;;;;22.11;65.78;99197.75;4476708;32;33091;-74
2023/06/02 11:36:26;;;;;;;;;;;;;;;22.27;62.65;99226.63;4484237;31;34683;-75
2023/06/02 11:39:01;;;;;;;;;;;;;;;21.68;65.56;99224.41;4486373;31;33778;-75
2023/06/02 11:41:31;;;;;;;;;;;;;;;21.62;65.12;99228.28;4478351;31;33162;-77
2023/06/02 11:44:03;;;;;;;;;;;;;;;21.43;64.53;99225.16;4490608;31;33335;-78
2023/06/02 11:46:32;;;;;;;;;;;;;;;21.38;68.69;99222.78;4491082;31;34154;-77
2023/06/02 11:49:03;;;;;;;;;;;;;;;21.46;70.12;99220.53;4497547;31;33509;-76
2023/06/02 11:51:32;;;;;;;;;;;;;;;21.45;66.12;99225.91;4492907;31;33413;-76
2023/06/02 11:54:02;;;;;;;;;;;;;;;21.37;64.49;99220.28;4490441;31;34710;-75
2023/06/02 11:56:31;;;;;;;;;;;;;;;21.05;63.00;99220.56;4487134;31;35474;-76
2023/06/02 11:59:00;;;;;;;;;;;;;;;21.29;66.51;99221.63;4491338;31;34497;-77
2023/06/02 12:01:31;;;;;;;;;;;;;;;21.15;67.78;99231.37;4498459;31;32837;-76
2023/06/02 12:04:03;;;;;;;;;;;;;;;21.16;65.87;99231.25;4492022;31;33930;-76
2023/06/02 12:06:33;;;;;;;;;;;;;;;21.08;67.36;99238.81;4492670;31;33758;-75
2023/06/02 12:09:11;;;;;;;;;;;;;;;21.09;68.13;99227.31;4488736;31;34817;-75
2023/06/02 12:11:40;;;;;;;;;;;;;;;21.04;69.73;99218.84;4494631;31;34357;-77
2023/06/02 12:14:10;;;;;;;;;;;;;;;21.03;71.08;99214.53;4494546;31;34207;-76
2023/06/02 12:16:42;;;;;;;;;;;;;;;21.17;71.16;99211.84;4488361;31;34986;-75
2023/06/02 12:19:16;;;;;;;;;;;;;;;21.15;70.47;99194.44;4482229;31;34098;-75
2023/06/02 12:21:45;;;;;;;;;;;;;;;21.10;70.55;99181.56;4478369;31;32797;-76
2023/06/02 12:24:29;;;;;;;;;;;;;;;21.42;69.36;99168.06;4495296;31;33775;-76
2023/06/02 12:26:58;;;;;;;;;;;;;;;21.37;69.46;99159.59;4488783;31;34569;-75
2023/06/02 12:29:27;;;;;;;;;;;;;;;21.42;69.94;99145.16;4492100;31;33731;-77
2023/06/02 12:31:56;;;;;;;;;;;;;;;21.39;70.70;99141.88;4477222;31;33370;-76
2023/06/02 12:34:27;;;;;;;;;;;;;;;21.60;68.19;99147.50;4475161;31;33776;-77
2023/06/02 12:36:56;;;;;;;;;;;;;;;21.38;71.10;99135.72;4455245;31;1097332;-76
2023/06/02 12:39:25;;;;;;;;;;;;;;;21.39;74.41;99131.31;4487587;31;33805;-76
2023/06/02 12:41:54;;;;;;;;;;;;;;;21.56;74.84;99128.41;4492196;31;32866;-78
2023/06/02 12:44:23;;;;;;;;;;;;;;;21.93;73.33;99125.88;4491264;31;34965;-78
2023/06/02 12:46:53;;;;;;;;;;;;;;;22.31;72.74;99117.13;4495762;31;34408;-77
2023/06/02 12:49:22;;;;;;;;;;;;;;;22.88;74.49;99120.94;4488944;31;34540;-79
2023/06/02 12:51:52;;;;;;;;;;;;;;;23.40;72.75;99125.06;4484010;31;32838;-78
2023/06/02 12:54:21;;;;;;;;;;;;;;;23.89;65.13;99115.19;4489966;31;35686;-78
2023/06/02 12:56:50;;;;;;;;;;;;;;;24.20;64.20;99113.66;4490919;31;34349;-80
2023/06/02 12:59:19;;;;;;;;;;;;;;;24.35;57.49;99103.63;4496381;31;34499;-79
2023/06/02 13:01:49;;;;;;;;;;;;;;;24.30;58.87;99105.81;4481749;31;33766;-78
2023/06/02 13:04:19;;;;;;;;;;;;;;;24.82;60.16;99107.81;4489318;31;34122;-80